Time;durP1;ratioP1;P1;durP2;ratioP2;P2;SDS_P1;SDS_P2;PMS_P1;PMS_P2;Temp;Humidity;BMP_temperature;BMP_pressure;BME280_temperature;BME280_humidity;BME280_pressure;Samples;Min_cycle;Max_cycle;Signal;HPM_P1;HPM_P2
2021/12/01 00:01:54;;;;;;;17.75;7.55;;;;;;;;;;4758879;28;20117;-82
2021/12/01 00:04:21;;;;;;;20.08;7.38;;;;;;;;;;4756105;28;20130;-83
2021/12/01 00:06:48;;;;;;;19.20;7.72;;;;;;;;;;4772819;28;20046;-80
2021/12/01 00:09:15;;;;;;;19.20;8.10;;;;;;;;;;4774549;28;20047;-80
2021/12/01 00:11:41;;;;;;;20.08;8.13;;;;;;;;;;4757088;28;20039;-81
2021/12/01 00:14:08;;;;;;;20.48;8.05;;;;;;;;;;4758437;28;20176;-80
2021/12/01 00:16:34;;;;;;;26.27;10.77;;;;;;;;;;4765856;28;20860;-82
2021/12/01 00:19:02;;;;;;;25.77;12.82;;;;;;;;;;4772902;28;20054;-80
2021/12/01 00:21:29;;;;;;;34.03;18.48;;;;;;;;;;4765358;28;20068;-81
2021/12/01 00:23:55;;;;;;;19.00;9.32;;;;;;;;;;4761798;28;20057;-80
2021/12/01 00:26:21;;;;;;;24.52;9.82;;;;;;;;;;4757663;28;20084;-80
2021/12/01 00:28:48;;;;;;;21.77;8.73;;;;;;;;;;4772371;28;20058;-81
2021/12/01 00:31:14;;;;;;;21.05;8.98;;;;;;;;;;4772633;28;20042;-80
2021/12/01 00:33:43;;;;;;;18.40;7.50;;;;;;;;;;4756545;28;20046;-83
2021/12/01 00:36:13;;;;;;;20.13;5.97;;;;;;;;;;4769421;28;22499;-81
2021/12/01 00:38:43;;;;;;;14.77;6.20;;;;;;;;;;4771911;28;20065;-82
2021/12/01 00:41:10;;;;;;;14.80;5.43;;;;;;;;;;4770390;28;20108;-82
2021/12/01 00:43:39;;;;;;;114.65;54.50;;;;;;;;;;4754328;28;20038;-81
2021/12/01 00:49:12;;;;;;;62.30;32.10;;;;;;;;;;4716542;28;21728;-80
2021/12/01 00:51:38;;;;;;;44.05;19.17;;;;;;;;;;4702855;29;20050;-81
2021/12/01 00:54:06;;;;;;;32.72;14.68;;;;;;;;;;4702931;28;20040;-80
2021/12/01 00:56:32;;;;;;;25.40;11.38;;;;;;;;;;4717202;29;20035;-80
2021/12/01 00:58:59;;;;;;;27.20;10.98;;;;;;;;;;4707312;29;20040;-81
2021/12/01 01:01:25;;;;;;;22.48;10.00;;;;;;;;;;4719174;28;20078;-81
2021/12/01 01:03:51;;;;;;;23.98;10.55;;;;;;;;;;4702168;29;20197;-80
2021/12/01 01:06:19;;;;;;;23.00;9.93;;;;;;;;;;4716704;29;20048;-81
2021/12/01 01:08:46;;;;;;;19.67;7.22;;;;;;;;;;4702857;29;20046;-80
2021/12/01 01:16:45;;;;;;;;;;;;;;;;;;4720838;28;20043;-80
2021/12/01 01:19:13;;;;;;;17.13;5.30;;;;;;;;;;4718855;28;19923;-80
2021/12/01 01:21:43;;;;;;;11.88;4.40;;;;;;;;;;4706095;28;21080;-80
2021/12/01 01:24:09;;;;;;;13.80;5.72;;;;;;;;;;4768538;28;20078;-82
2021/12/01 01:26:36;;;;;;;12.45;3.55;;;;;;;;;;4764931;28;20065;-80
2021/12/01 01:29:03;;;;;;;13.25;5.78;;;;;;;;;;4762506;28;20176;-80
2021/12/01 01:31:29;;;;;;;13.20;3.75;;;;;;;;;;4758173;28;20716;-80
2021/12/01 01:33:57;;;;;;;12.80;2.75;;;;;;;;;;4771558;28;20695;-80
2021/12/01 01:36:23;;;;;;;11.98;4.72;;;;;;;;;;4783636;28;20066;-80
2021/12/01 01:38:50;;;;;;;17.83;3.17;;;;;;;;;;4792780;28;20140;-80
2021/12/01 01:41:16;;;;;;;;;;;;;;;;;;4761998;28;20038;-80
2021/12/01 01:43:43;;;;;;;13.50;3.13;;;;;;;;;;4781255;28;19928;-81
2021/12/01 01:46:10;;;;;;;11.65;2.50;;;;;;;;;;4767036;28;20141;-80
2021/12/01 01:51:34;;;;;;;10.35;2.30;;;;;;;;;;4743780;28;22405;-80
2021/12/01 01:54:00;;;;;;;12.63;2.88;;;;;;;;;;4742741;28;20034;-80
2021/12/01 01:56:27;;;;;;;11.32;2.60;;;;;;;;;;4726057;28;20043;-79
2021/12/01 01:58:54;;;;;;;11.45;2.40;;;;;;;;;;4724336;28;20175;-80
2021/12/01 02:01:39;;;;;;;11.68;2.47;;;;;;;;;;4725652;28;20075;-79
2021/12/01 02:04:06;;;;;;;12.77;2.40;;;;;;;;;;4725295;28;20173;-79
2021/12/01 02:06:32;;;;;;;15.27;2.78;;;;;;;;;;4724717;28;20195;-80
2021/12/01 02:09:00;;;;;;;10.13;2.10;;;;;;;;;;4740240;28;20066;-83
2021/12/01 02:11:27;;;;;;;11.40;2.58;;;;;;;;;;4740896;28;21071;-82
2021/12/01 02:13:54;;;;;;;10.82;2.95;;;;;;;;;;4725927;28;21590;-80
2021/12/01 02:16:21;;;;;;;11.48;3.17;;;;;;;;;;4740314;28;20039;-79
2021/12/01 02:18:47;;;;;;;;;;;;;;;;;;4742216;28;21278;-80
2021/12/01 02:21:18;;;;;;;13.73;3.33;;;;;;;;;;4739171;28;22033;-80
2021/12/01 02:23:46;;;;;;;14.40;3.47;;;;;;;;;;4721460;28;20032;-82
2021/12/01 02:26:13;;;;;;;14.20;3.42;;;;;;;;;;4720074;28;20047;-81
2021/12/01 02:28:39;;;;;;;11.35;2.90;;;;;;;;;;4769545;28;20050;-80
2021/12/01 02:31:05;;;;;;;;;;;;;;;;;;4779756;28;20047;-80
2021/12/01 02:33:32;;;;;;;14.80;3.15;;;;;;;;;;4760691;28;19922;-83
2021/12/01 02:35:58;;;;;;;13.27;3.78;;;;;;;;;;4764102;28;20034;-80
2021/12/01 02:38:25;;;;;;;14.73;3.58;;;;;;;;;;4765992;28;20097;-80
2021/12/01 02:40:51;;;;;;;;;;;;;;;;;;4781883;28;20030;-80
2021/12/01 02:43:21;;;;;;;14.57;3.40;;;;;;;;;;4777078;28;20127;-80
2021/12/01 02:45:50;;;;;;;13.35;3.60;;;;;;;;;;4781725;28;20407;-80
2021/12/01 02:48:17;;;;;;;15.45;3.30;;;;;;;;;;4760923;28;20165;-81
2021/12/01 02:50:43;;;;;;;13.50;3.35;;;;;;;;;;4761744;28;20037;-83
2021/12/01 02:53:11;;;;;;;16.13;4.05;;;;;;;;;;4775564;28;20121;-80
2021/12/01 02:55:49;;;;;;;13.18;3.35;;;;;;;;;;4765950;28;24800;-82
2021/12/01 02:58:18;;;;;;;14.70;3.60;;;;;;;;;;4746474;28;21399;-82
2021/12/01 03:00:44;;;;;;;14.23;3.72;;;;;;;;;;4761701;28;20847;-82
2021/12/01 03:03:11;;;;;;;9.13;3.08;;;;;;;;;;4779282;28;20097;-81
2021/12/01 03:05:37;;;;;;;12.13;3.30;;;;;;;;;;4764016;28;20060;-81
2021/12/01 03:08:04;;;;;;;12.73;3.33;;;;;;;;;;4774357;28;21187;-81
2021/12/01 03:10:31;;;;;;;11.43;3.20;;;;;;;;;;4772950;28;21112;-80
2021/12/01 03:12:57;;;;;;;;;;;;;;;;;;4759328;28;20039;-80
2021/12/01 03:15:23;;;;;;;12.68;3.35;;;;;;;;;;4761565;28;19968;-80
2021/12/01 03:17:49;;;;;;;10.23;2.80;;;;;;;;;;4773639;28;20035;-80
2021/12/01 03:20:15;;;;;;;11.07;3.20;;;;;;;;;;4758325;28;23087;-80
2021/12/01 03:22:41;;;;;;;;;;;;;;;;;;4770045;28;20046;-80
2021/12/01 03:25:09;;;;;;;10.55;2.88;;;;;;;;;;4773973;28;21284;-80
2021/12/01 03:27:36;;;;;;;14.27;2.65;;;;;;;;;;4763077;28;20038;-80
2021/12/01 03:30:03;;;;;;;10.45;2.40;;;;;;;;;;4774602;28;20742;-80
2021/12/01 03:32:29;;;;;;;12.65;2.83;;;;;;;;;;4757611;28;20030;-80
2021/12/01 03:34:57;;;;;;;10.68;2.78;;;;;;;;;;4772077;28;23024;-81
2021/12/01 03:37:24;;;;;;;10.20;2.40;;;;;;;;;;4754380;28;20146;-80
2021/12/01 03:39:50;;;;;;;10.60;2.50;;;;;;;;;;4773158;28;20042;-81
2021/12/01 03:42:16;;;;;;;10.48;2.88;;;;;;;;;;4774265;28;20038;-83
2021/12/01 03:44:42;;;;;;;9.18;2.03;;;;;;;;;;4755456;28;20035;-80
2021/12/01 03:47:09;;;;;;;10.85;2.70;;;;;;;;;;4773245;28;20229;-83
2021/12/01 03:49:36;;;;;;;7.55;2.08;;;;;;;;;;4772521;28;20038;-81
2021/12/01 03:52:03;;;;;;;11.32;2.47;;;;;;;;;;4765898;28;21379;-83
2021/12/01 03:54:29;;;;;;;13.98;3.47;;;;;;;;;;4754873;28;20042;-81
2021/12/01 03:56:55;;;;;;;9.50;2.85;;;;;;;;;;4764054;28;20042;-81
2021/12/01 03:59:21;;;;;;;10.55;2.25;;;;;;;;;;4772063;28;21553;-80
2021/12/01 04:01:48;;;;;;;8.50;2.20;;;;;;;;;;4752823;28;21112;-81
2021/12/01 04:04:14;;;;;;;9.13;2.13;;;;;;;;;;4760921;28;20035;-80
2021/12/01 04:06:40;;;;;;;;;;;;;;;;;;4762326;28;20073;-81
2021/12/01 04:09:07;;;;;;;6.75;1.63;;;;;;;;;;4755578;28;20653;-81
2021/12/01 04:11:33;;;;;;;7.25;1.60;;;;;;;;;;4752115;28;20034;-82
2021/12/01 04:13:59;;;;;;;6.10;1.58;;;;;;;;;;4758198;28;20127;-80
2021/12/01 04:16:25;;;;;;;6.38;1.70;;;;;;;;;;4762464;28;20050;-80
2021/12/01 04:18:52;;;;;;;9.80;2.00;;;;;;;;;;4772233;28;20035;-79
2021/12/01 04:21:20;;;;;;;7.75;1.92;;;;;;;;;;4776720;28;21343;-79
2021/12/01 04:23:47;;;;;;;11.55;2.28;;;;;;;;;;4756144;28;20041;-80
2021/12/01 04:26:17;;;;;;;;;;;;;;;;;;4758200;28;20034;-80
2021/12/01 04:28:44;;;;;;;10.77;1.85;;;;;;;;;;4759257;28;20679;-80
2021/12/01 04:31:10;;;;;;;7.63;1.98;;;;;;;;;;4769915;28;20042;-81
2021/12/01 04:33:36;;;;;;;10.35;2.63;;;;;;;;;;4772234;28;21629;-81
2021/12/01 04:36:04;;;;;;;10.63;2.25;;;;;;;;;;4796310;28;20097;-79
2021/12/01 04:38:30;;;;;;;9.80;2.10;;;;;;;;;;4767640;28;20176;-80
2021/12/01 04:40:56;;;;;;;11.25;1.90;;;;;;;;;;4765954;28;21680;-80
2021/12/01 04:43:23;;;;;;;9.63;2.15;;;;;;;;;;4758178;28;20648;-79
2021/12/01 04:45:58;;;;;;;8.77;1.65;;;;;;;;;;4769970;28;22357;-80
2021/12/01 04:48:24;;;;;;;9.30;1.92;;;;;;;;;;4755176;28;20701;-80
2021/12/01 04:50:50;;;;;;;9.52;2.20;;;;;;;;;;4779759;28;20042;-80
2021/12/01 04:53:17;;;;;;;9.80;1.98;;;;;;;;;;4782751;28;20141;-80
2021/12/01 04:55:44;;;;;;;9.13;1.92;;;;;;;;;;4780211;28;20090;-80
2021/12/01 04:58:10;;;;;;;9.73;1.75;;;;;;;;;;4753866;28;20782;-80
2021/12/01 05:00:37;;;;;;;8.27;2.05;;;;;;;;;;4777787;28;20810;-80
2021/12/01 05:03:04;;;;;;;10.50;2.00;;;;;;;;;;4767874;28;20030;-81
2021/12/01 05:05:30;;;;;;;10.00;1.90;;;;;;;;;;4783320;28;20053;-80
2021/12/01 05:07:56;;;;;;;;;;;;;;;;;;4765614;28;20873;-80
2021/12/01 05:10:23;;;;;;;7.55;1.60;;;;;;;;;;4790865;28;19922;-80
2021/12/01 05:12:49;;;;;;;;;;;;;;;;;;4785352;28;20089;-80
2021/12/01 05:15:16;;;;;;;8.30;1.90;;;;;;;;;;4781413;28;21490;-80
2021/12/01 05:17:42;;;;;;;9.85;2.15;;;;;;;;;;4787616;28;20907;-80
2021/12/01 05:20:11;;;;;;;8.68;2.15;;;;;;;;;;4789516;28;20831;-80
2021/12/01 05:22:38;;;;;;;9.93;3.35;;;;;;;;;;4789174;28;20718;-79
2021/12/01 05:25:05;;;;;;;13.60;4.63;;;;;;;;;;4815136;28;20437;-79
2021/12/01 05:27:32;;;;;;;10.80;4.55;;;;;;;;;;4803516;28;20034;-80
2021/12/01 05:29:58;;;;;;;14.88;4.18;;;;;;;;;;4823183;28;20096;-80
2021/12/01 05:32:26;;;;;;;9.88;4.30;;;;;;;;;;4816395;28;20065;-80
2021/12/01 05:34:53;;;;;;;12.45;4.43;;;;;;;;;;4810798;28;20673;-80
2021/12/01 05:37:20;;;;;;;10.60;3.92;;;;;;;;;;4793340;28;20686;-81
2021/12/01 05:39:48;;;;;;;10.25;3.67;;;;;;;;;;4801174;28;20046;-79
2021/12/01 05:42:16;;;;;;;12.27;3.75;;;;;;;;;;4790872;28;21316;-79
2021/12/01 05:44:43;;;;;;;10.18;3.78;;;;;;;;;;4794643;28;21190;-79
2021/12/01 05:47:10;;;;;;;11.95;4.03;;;;;;;;;;4786752;28;20187;-79
2021/12/01 05:49:41;;;;;;;9.13;3.13;;;;;;;;;;4802120;28;20129;-80
2021/12/01 05:52:09;;;;;;;10.75;2.92;;;;;;;;;;4838961;28;20044;-79
2021/12/01 05:54:35;;;;;;;14.85;4.68;;;;;;;;;;4820685;28;20144;-79
2021/12/01 05:57:05;;;;;;;9.50;2.67;;;;;;;;;;4781339;28;22307;-82
2021/12/01 05:59:33;;;;;;;12.40;3.47;;;;;;;;;;4785350;28;20117;-80
2021/12/01 06:02:00;;;;;;;11.82;2.88;;;;;;;;;;4789920;28;20038;-79
2021/12/01 06:04:27;;;;;;;8.55;2.30;;;;;;;;;;4783052;28;20049;-82
2021/12/01 06:06:54;;;;;;;8.52;2.55;;;;;;;;;;4773569;28;20031;-81
2021/12/01 06:09:21;;;;;;;10.38;2.92;;;;;;;;;;4788560;28;20049;-79
2021/12/01 06:11:51;;;;;;;12.70;3.45;;;;;;;;;;4775541;28;20043;-81
2021/12/01 06:14:19;;;;;;;12.50;4.28;;;;;;;;;;4799242;28;20692;-79
2021/12/01 06:16:46;;;;;;;11.38;3.83;;;;;;;;;;4804432;28;20038;-79
2021/12/01 06:19:13;;;;;;;11.73;3.10;;;;;;;;;;4803827;28;20042;-79
2021/12/01 06:21:39;;;;;;;13.93;3.15;;;;;;;;;;4816757;28;21260;-80
2021/12/01 06:24:05;;;;;;;9.68;2.83;;;;;;;;;;4827435;28;20026;-80
2021/12/01 06:26:32;;;;;;;10.80;2.78;;;;;;;;;;4806272;28;20462;-80
2021/12/01 06:28:59;;;;;;;;;;;;;;;;;;4810198;28;20043;-79
2021/12/01 06:31:28;;;;;;;9.33;2.17;;;;;;;;;;4804843;28;19922;-83
2021/12/01 06:33:54;;;;;;;10.98;3.08;;;;;;;;;;4808889;28;20288;-79
2021/12/01 06:36:20;;;;;;;8.68;2.45;;;;;;;;;;4785576;28;20050;-79
2021/12/01 06:38:46;;;;;;;10.77;2.88;;;;;;;;;;4798480;28;20042;-79
2021/12/01 06:41:13;;;;;;;10.90;2.72;;;;;;;;;;4771983;28;20035;-80
2021/12/01 06:43:39;;;;;;;10.10;2.42;;;;;;;;;;4788763;28;21239;-80
2021/12/01 06:46:06;;;;;;;10.57;2.33;;;;;;;;;;4793874;28;20035;-80
2021/12/01 06:48:33;;;;;;;9.55;2.30;;;;;;;;;;4790197;28;20182;-82
2021/12/01 06:51:03;;;;;;;9.68;2.25;;;;;;;;;;4805054;28;20169;-81
2021/12/01 06:53:30;;;;;;;9.15;2.15;;;;;;;;;;4790656;28;20057;-81
2021/12/01 06:55:57;;;;;;;8.50;2.60;;;;;;;;;;4797101;28;20045;-80
2021/12/01 06:58:24;;;;;;;13.32;3.15;;;;;;;;;;4770330;28;20464;-80
2021/12/01 07:00:50;;;;;;;11.00;2.83;;;;;;;;;;4772646;28;20047;-81
2021/12/01 07:03:17;;;;;;;10.02;2.78;;;;;;;;;;4795621;28;20038;-79
2021/12/01 07:05:43;;;;;;;9.18;2.65;;;;;;;;;;4802081;28;20038;-79
2021/12/01 07:08:10;;;;;;;11.35;2.85;;;;;;;;;;4808211;28;21523;-79
2021/12/01 07:10:37;;;;;;;11.05;3.15;;;;;;;;;;4809229;28;20081;-79
2021/12/01 07:13:03;;;;;;;16.67;7.15;;;;;;;;;;4792806;28;22413;-79
2021/12/01 07:15:29;;;;;;;16.02;6.68;;;;;;;;;;4781710;28;20770;-80
2021/12/01 07:17:56;;;;;;;25.33;10.60;;;;;;;;;;4794152;28;20076;-79
2021/12/01 07:20:22;;;;;;;19.67;6.20;;;;;;;;;;4770587;28;20186;-79
2021/12/01 07:22:49;;;;;;;16.10;5.80;;;;;;;;;;4777047;28;20046;-79
2021/12/01 07:25:16;;;;;;;14.48;5.10;;;;;;;;;;4778615;28;20041;-80
2021/12/01 07:27:43;;;;;;;15.00;4.90;;;;;;;;;;4795312;28;20948;-79
2021/12/01 07:30:10;;;;;;;12.95;4.43;;;;;;;;;;4790898;28;20034;-79
2021/12/01 07:32:37;;;;;;;15.35;4.50;;;;;;;;;;4804012;28;20366;-80
2021/12/01 07:35:04;;;;;;;13.07;4.18;;;;;;;;;;4811563;28;20043;-80
2021/12/01 07:37:31;;;;;;;12.32;4.45;;;;;;;;;;4815587;28;20047;-79
2021/12/01 07:40:00;;;;;;;11.88;4.38;;;;;;;;;;4814807;28;20030;-80
2021/12/01 07:42:27;;;;;;;18.08;5.65;;;;;;;;;;4786069;28;20121;-80
2021/12/01 07:44:53;;;;;;;17.20;7.22;;;;;;;;;;4798865;28;20027;-79
2021/12/01 07:47:20;;;;;;;21.58;7.53;;;;;;;;;;4811098;28;20164;-80
2021/12/01 07:49:47;;;;;;;16.98;7.43;;;;;;;;;;4795273;28;20065;-80
2021/12/01 07:52:14;;;;;;;13.65;5.50;;;;;;;;;;4789791;28;21137;-81
2021/12/01 07:54:40;;;;;;;15.35;5.90;;;;;;;;;;4813584;28;21123;-80
2021/12/01 07:57:07;;;;;;;12.68;5.30;;;;;;;;;;4825655;28;20245;-80
2021/12/01 07:59:34;;;;;;;22.77;8.23;;;;;;;;;;4830291;28;20023;-79
2021/12/01 08:02:00;;;;;;;;;;;;;;;;;;4810468;28;20755;-80
2021/12/01 08:04:27;;;;;;;18.08;7.90;;;;;;;;;;4797738;28;19929;-80
2021/12/01 08:06:54;;;;;;;16.92;8.43;;;;;;;;;;4824424;28;20085;-79
2021/12/01 08:09:21;;;;;;;19.33;7.65;;;;;;;;;;4802595;28;20038;-80
2021/12/01 08:11:48;;;;;;;16.58;6.53;;;;;;;;;;4819661;28;20387;-79
2021/12/01 08:14:15;;;;;;;20.80;8.82;;;;;;;;;;4810955;28;20130;-79
2021/12/01 08:16:41;;;;;;;16.00;7.78;;;;;;;;;;4843550;28;20172;-79
2021/12/01 08:19:08;;;;;;;16.40;7.55;;;;;;;;;;4828716;28;20043;-79
2021/12/01 08:21:34;;;;;;;16.27;7.75;;;;;;;;;;4824891;28;20046;-79
2021/12/01 08:24:00;;;;;;;;;;;;;;;;;;4827321;28;20033;-81
2021/12/01 08:26:27;;;;;;;21.50;10.32;;;;;;;;;;4822958;28;19922;-80
2021/12/01 08:28:54;;;;;;;13.68;7.13;;;;;;;;;;4803221;28;21426;-79
2021/12/01 08:31:21;;;;;;;16.85;9.07;;;;;;;;;;4793399;28;20172;-79
2021/12/01 08:33:48;;;;;;;18.65;9.25;;;;;;;;;;4799392;28;20260;-78
2021/12/01 08:36:14;;;;;;;19.17;9.98;;;;;;;;;;4802573;28;20042;-78
2021/12/01 08:38:42;;;;;;;16.48;7.53;;;;;;;;;;4806922;28;20772;-79
2021/12/01 08:41:09;;;;;;;19.05;7.13;;;;;;;;;;4774753;28;20042;-79
2021/12/01 08:43:36;;;;;;;16.23;6.82;;;;;;;;;;4797974;28;20771;-80
2021/12/01 08:46:03;;;;;;;18.63;7.63;;;;;;;;;;4798287;28;21030;-79
2021/12/01 08:48:31;;;;;;;20.38;7.82;;;;;;;;;;4786360;28;20255;-79
2021/12/01 08:51:01;;;;;;;19.92;7.43;;;;;;;;;;4783812;28;20077;-80
2021/12/01 08:53:28;;;;;;;22.65;8.05;;;;;;;;;;4801194;28;20698;-82
2021/12/01 08:55:54;;;;;;;23.35;12.35;;;;;;;;;;4789701;28;20132;-79
2021/12/01 08:58:21;;;;;;;;;;;;;;;;;;4810743;28;20066;-79
2021/12/01 09:00:48;;;;;;;17.25;7.78;;;;;;;;;;4796834;28;19921;-80
2021/12/01 09:03:14;;;;;;;14.68;6.30;;;;;;;;;;4795875;28;21938;-79
2021/12/01 09:05:43;;;;;;;13.30;5.50;;;;;;;;;;4801298;28;20837;-80
2021/12/01 09:08:09;;;;;;;14.88;6.05;;;;;;;;;;4783365;28;20122;-79
2021/12/01 09:10:35;;;;;;;;;;;;;;;;;;4797088;28;20096;-78
2021/12/01 09:13:02;;;;;;;16.30;6.97;;;;;;;;;;4793332;28;19960;-79
2021/12/01 09:15:30;;;;;;;17.42;7.68;;;;;;;;;;4800313;28;20049;-78
2021/12/01 09:17:57;;;;;;;18.13;7.50;;;;;;;;;;4806667;28;20180;-79
2021/12/01 09:20:25;;;;;;;23.73;8.70;;;;;;;;;;4815460;28;20030;-79
2021/12/01 09:22:51;;;;;;;17.45;8.35;;;;;;;;;;4816404;28;20046;-81
2021/12/01 09:25:18;;;;;;;16.20;6.38;;;;;;;;;;4835480;28;20047;-82
2021/12/01 09:27:46;;;;;;;14.57;4.28;;;;;;;;;;4797260;28;20069;-81
2021/12/01 09:30:13;;;;;;;14.18;3.60;;;;;;;;;;4784979;28;20406;-82
2021/12/01 09:32:40;;;;;;;10.80;3.40;;;;;;;;;;4836461;28;20038;-79
2021/12/01 09:35:07;;;;;;;12.48;5.22;;;;;;;;;;4830259;28;20038;-79
2021/12/01 09:37:33;;;;;;;12.52;4.40;;;;;;;;;;4826318;28;20743;-80
2021/12/01 09:40:02;;;;;;;11.60;3.53;;;;;;;;;;4807873;28;20031;-79
2021/12/01 09:42:29;;;;;;;9.52;3.25;;;;;;;;;;4788666;28;21707;-79
2021/12/01 09:44:56;;;;;;;8.85;2.55;;;;;;;;;;4789769;28;20038;-81
2021/12/01 09:47:24;;;;;;;10.35;3.10;;;;;;;;;;4775948;28;20045;-79
2021/12/01 09:49:51;;;;;;;12.43;2.88;;;;;;;;;;4798538;28;20177;-79
2021/12/01 09:52:20;;;;;;;12.38;4.10;;;;;;;;;;4797081;28;20098;-79
2021/12/01 09:54:48;;;;;;;9.82;3.15;;;;;;;;;;4785222;28;20038;-79
2021/12/01 09:57:15;;;;;;;10.38;2.63;;;;;;;;;;4772419;28;22262;-78
2021/12/01 09:59:42;;;;;;;10.23;3.10;;;;;;;;;;4775268;28;20038;-79
2021/12/01 10:02:10;;;;;;;9.95;3.17;;;;;;;;;;4781545;28;20038;-82
2021/12/01 10:04:36;;;;;;;8.48;2.63;;;;;;;;;;4778114;28;20055;-81
2021/12/01 10:07:12;;;;;;;9.45;3.03;;;;;;;;;;4763434;28;22046;-79
2021/12/01 10:09:43;;;;;;;12.20;3.58;;;;;;;;;;4780165;28;20721;-81
2021/12/01 10:12:09;;;;;;;9.68;2.80;;;;;;;;;;4767904;28;20038;-79
2021/12/01 10:14:35;;;;;;;9.45;2.70;;;;;;;;;;4758791;28;20744;-79
2021/12/01 10:17:02;;;;;;;13.57;3.10;;;;;;;;;;4778083;28;20073;-78
2021/12/01 10:19:29;;;;;;;10.95;3.78;;;;;;;;;;4774994;28;21099;-78
2021/12/01 10:21:55;;;;;;;11.05;3.40;;;;;;;;;;4762951;28;20049;-81
2021/12/01 10:24:23;;;;;;;9.68;2.88;;;;;;;;;;4815408;28;20039;-79
2021/12/01 10:26:56;;;;;;;10.43;3.08;;;;;;;;;;4765758;28;22196;-80
2021/12/01 10:29:24;;;;;;;9.13;2.75;;;;;;;;;;4758998;28;20082;-80
2021/12/01 10:31:51;;;;;;;12.02;3.97;;;;;;;;;;4764837;28;22319;-79
2021/12/01 10:34:19;;;;;;;10.18;2.83;;;;;;;;;;4777312;28;20042;-79
2021/12/01 10:36:48;;;;;;;9.02;2.90;;;;;;;;;;4764504;28;20043;-79
2021/12/01 10:39:14;;;;;;;7.68;2.22;;;;;;;;;;4772363;28;22317;-78
2021/12/01 10:41:41;;;;;;;9.88;4.25;;;;;;;;;;4776991;28;20625;-80
2021/12/01 10:44:10;;;;;;;15.43;5.78;;;;;;;;;;4779765;28;20129;-79
2021/12/01 10:46:44;;;;;;;12.25;3.20;;;;;;;;;;4777507;28;20735;-82
2021/12/01 10:49:10;;;;;;;11.68;3.35;;;;;;;;;;4760228;28;20060;-79
2021/12/01 10:51:39;;;;;;;9.18;2.53;;;;;;;;;;4763038;28;20038;-80
2021/12/01 10:54:13;;;;;;;8.38;2.97;;;;;;;;;;4774646;28;20089;-78
2021/12/01 10:56:39;;;;;;;7.40;2.28;;;;;;;;;;4760247;28;21965;-78
2021/12/01 10:59:11;;;;;;;10.82;3.28;;;;;;;;;;4773262;28;20627;-79
2021/12/01 11:01:37;;;;;;;7.40;2.60;;;;;;;;;;4758720;28;20137;-79
2021/12/01 11:04:04;;;;;;;11.88;3.25;;;;;;;;;;4771120;28;20165;-79
2021/12/01 11:06:34;;;;;;;9.95;2.90;;;;;;;;;;4746383;28;20046;-78
2021/12/01 11:09:02;;;;;;;7.53;2.63;;;;;;;;;;4751720;28;20744;-78
2021/12/01 11:11:45;;;;;;;14.93;7.18;;;;;;;;;;4760715;28;20027;-81
2021/12/01 11:14:13;;;;;;;14.23;4.40;;;;;;;;;;4754853;28;20034;-79
2021/12/01 11:16:41;;;;;;;11.95;3.90;;;;;;;;;;4774021;28;20217;-78
2021/12/01 11:19:08;;;;;;;12.82;3.40;;;;;;;;;;4776372;28;20892;-78
2021/12/01 11:21:37;;;;;;;10.23;3.05;;;;;;;;;;4773189;28;20053;-79
2021/12/01 11:24:09;;;;;;;10.15;3.35;;;;;;;;;;4771751;28;20156;-79
2021/12/01 11:26:37;;;;;;;11.63;4.88;;;;;;;;;;4767204;28;20041;-81
2021/12/01 11:29:12;;;;;;;10.70;4.18;;;;;;;;;;4756859;28;20070;-81
2021/12/01 11:31:43;;;;;;;15.45;4.85;;;;;;;;;;4775451;28;22345;-79
2021/12/01 11:34:13;;;;;;;12.48;4.68;;;;;;;;;;4762727;28;20104;-79
2021/12/01 11:36:41;;;;;;;12.18;4.35;;;;;;;;;;4773427;28;20042;-79
2021/12/01 11:39:10;;;;;;;13.50;4.43;;;;;;;;;;4756707;28;20039;-79
2021/12/01 11:41:41;;;;;;;10.32;3.70;;;;;;;;;;4751056;28;20065;-79
2021/12/01 11:44:08;;;;;;;9.77;3.15;;;;;;;;;;4754003;28;20041;-81
2021/12/01 11:46:35;;;;;;;10.10;3.00;;;;;;;;;;4775167;28;20053;-80
2021/12/01 11:49:05;;;;;;;11.95;3.60;;;;;;;;;;4772701;28;20039;-78
2021/12/01 11:51:40;;;;;;;10.30;2.72;;;;;;;;;;4774771;28;20647;-79
2021/12/01 11:54:16;;;;;;;12.80;3.03;;;;;;;;;;4759010;28;20060;-78
2021/12/01 11:56:59;;;;;;;10.55;3.03;;;;;;;;;;4767459;28;20030;-81
2021/12/01 11:59:27;;;;;;;9.07;2.72;;;;;;;;;;4775507;28;20056;-81
2021/12/01 12:01:57;;;;;;;9.70;2.95;;;;;;;;;;4760041;28;20209;-80
2021/12/01 12:04:36;;;;;;;8.63;2.40;;;;;;;;;;4756981;28;20035;-78
2021/12/01 12:07:08;;;;;;;13.73;4.38;;;;;;;;;;4769878;28;20046;-78
2021/12/01 12:09:37;;;;;;;10.65;3.90;;;;;;;;;;4776046;28;20130;-81
2021/12/01 12:12:14;;;;;;;8.05;2.10;;;;;;;;;;4774408;28;20120;-81
2021/12/01 12:14:43;;;;;;;9.60;2.25;;;;;;;;;;4777234;28;20034;-80
2021/12/01 12:17:10;;;;;;;11.18;2.95;;;;;;;;;;4778456;28;21709;-79
2021/12/01 12:19:55;;;;;;;23.98;9.13;;;;;;;;;;4784428;28;20073;-80
2021/12/01 12:22:25;;;;;;;10.02;2.00;;;;;;;;;;4875643;28;20497;-79
2021/12/01 12:24:53;;;;;;;8.00;1.83;;;;;;;;;;4785009;28;20776;-79
2021/12/01 12:27:39;;;;;;;10.32;2.15;;;;;;;;;;4767870;28;20041;-79
2021/12/01 12:30:21;;;;;;;10.30;2.40;;;;;;;;;;4783022;28;20038;-81
2021/12/01 12:32:47;;;;;;;12.85;3.00;;;;;;;;;;4780602;28;20041;-79
2021/12/01 12:35:15;;;;;;;8.20;1.70;;;;;;;;;;4788670;28;20841;-79
2021/12/01 12:37:43;;;;;;;8.50;1.70;;;;;;;;;;4777886;28;20063;-78
2021/12/01 12:40:24;;;;;;;14.75;2.50;;;;;;;;;;4765157;28;20914;-79
2021/12/01 12:43:09;;;;;;;9.93;2.30;;;;;;;;;;4762064;28;20058;-78
2021/12/01 12:45:37;;;;;;;8.02;1.98;;;;;;;;;;4766050;28;20751;-79
2021/12/01 12:48:24;;;;;;;12.80;3.10;;;;;;;;;;4762499;28;21308;-78
2021/12/01 12:51:09;;;;;;;8.07;2.30;;;;;;;;;;4762421;28;20201;-78
2021/12/01 12:53:35;;;;;;;12.10;3.20;;;;;;;;;;4764985;28;20133;-78
2021/12/01 12:56:01;;;;;;;;;;;;;;;;;;4774162;28;20153;-79
2021/12/01 12:58:46;;;;;;;9.88;3.45;;;;;;;;;;4777258;28;20028;-79
2021/12/01 13:01:24;;;;;;;12.48;3.10;;;;;;;;;;4768798;28;20039;-79
2021/12/01 13:03:52;;;;;;;11.20;3.15;;;;;;;;;;4754869;28;20101;-81
2021/12/01 13:06:29;;;;;;;9.13;2.97;;;;;;;;;;4758623;28;20169;-79
2021/12/01 13:09:14;;;;;;;20.23;10.52;;;;;;;;;;4751032;28;20039;-82
2021/12/01 13:11:40;;;;;;;9.73;2.80;;;;;;;;;;4781608;28;20850;-81
2021/12/01 13:14:06;;;;;;;8.23;2.63;;;;;;;;;;4753936;28;20046;-81
2021/12/01 13:16:33;;;;;;;9.05;1.85;;;;;;;;;;4753136;28;21895;-80
2021/12/01 13:19:06;;;;;;;8.98;2.40;;;;;;;;;;4751700;28;20054;-80
2021/12/01 13:21:35;;;;;;;10.60;3.25;;;;;;;;;;4762913;28;20149;-80
2021/12/01 13:24:03;;;;;;;10.77;2.50;;;;;;;;;;4781401;28;20038;-81
2021/12/01 13:26:32;;;;;;;10.45;3.35;;;;;;;;;;4770284;28;20054;-79
2021/12/01 13:29:03;;;;;;;10.77;3.10;;;;;;;;;;4762632;28;20043;-78
2021/12/01 13:31:31;;;;;;;11.00;3.08;;;;;;;;;;4751547;28;20047;-80
2021/12/01 13:34:17;;;;;;;8.88;2.42;;;;;;;;;;4750191;28;20043;-79
2021/12/01 13:36:45;;;;;;;6.85;1.80;;;;;;;;;;4757018;28;20034;-79
2021/12/01 13:39:21;;;;;;;8.02;2.22;;;;;;;;;;4766292;28;20835;-80
2021/12/01 13:41:50;;;;;;;8.90;2.53;;;;;;;;;;4769154;28;20101;-79
2021/12/01 13:44:21;;;;;;;7.05;1.90;;;;;;;;;;4765635;28;20077;-81
2021/12/01 13:46:49;;;;;;;8.65;1.83;;;;;;;;;;4784692;28;20043;-80
2021/12/01 13:49:15;;;;;;;8.18;2.20;;;;;;;;;;4772388;28;20656;-79
2021/12/01 13:51:43;;;;;;;8.25;2.22;;;;;;;;;;4767729;28;20121;-79
2021/12/01 13:54:15;;;;;;;9.75;2.38;;;;;;;;;;4766247;28;20038;-79
2021/12/01 13:56:42;;;;;;;12.18;2.60;;;;;;;;;;4767848;28;20027;-79
2021/12/01 13:59:09;;;;;;;9.43;2.70;;;;;;;;;;4757733;28;20046;-79
2021/12/01 14:01:37;;;;;;;9.80;3.30;;;;;;;;;;4782527;28;20139;-79
2021/12/01 14:04:07;;;;;;;11.50;3.10;;;;;;;;;;4778424;28;20900;-78
2021/12/01 14:06:36;;;;;;;8.10;2.10;;;;;;;;;;4778108;28;21214;-81
2021/12/01 14:09:07;;;;;;;8.80;2.22;;;;;;;;;;4784495;28;20034;-80
2021/12/01 14:11:35;;;;;;;9.18;2.65;;;;;;;;;;4784734;28;20030;-80
2021/12/01 14:14:05;;;;;;;8.65;2.30;;;;;;;;;;4779649;28;20038;-80
2021/12/01 14:16:32;;;;;;;13.30;3.08;;;;;;;;;;4782207;28;20039;-79
2021/12/01 14:19:00;;;;;;;12.75;3.15;;;;;;;;;;4778981;28;20209;-79
2021/12/01 14:21:28;;;;;;;8.32;2.60;;;;;;;;;;4763439;28;20093;-80
2021/12/01 14:23:59;;;;;;;7.75;2.20;;;;;;;;;;4765632;28;22173;-79
2021/12/01 14:26:30;;;;;;;6.75;2.08;;;;;;;;;;4764660;28;20148;-79
2021/12/01 14:29:05;;;;;;;13.15;3.88;;;;;;;;;;4785597;28;20074;-81
2021/12/01 14:31:31;;;;;;;12.35;2.85;;;;;;;;;;4778754;28;20073;-78
2021/12/01 14:34:08;;;;;;;9.85;2.53;;;;;;;;;;4781378;28;20159;-81
2021/12/01 14:36:36;;;;;;;8.80;3.10;;;;;;;;;;4779622;28;20104;-81
2021/12/01 14:39:03;;;;;;;8.57;2.88;;;;;;;;;;4761164;28;20038;-79
2021/12/01 14:41:35;;;;;;;9.25;2.63;;;;;;;;;;4766860;28;20043;-79
2021/12/01 14:44:04;;;;;;;8.77;2.10;;;;;;;;;;4761808;28;20181;-79
2021/12/01 14:46:31;;;;;;;9.05;2.10;;;;;;;;;;4761578;28;20086;-79
2021/12/01 14:49:06;;;;;;;12.18;2.55;;;;;;;;;;4746695;28;20031;-79
2021/12/01 14:51:55;;;;;;;8.52;1.92;;;;;;;;;;4769835;28;20172;-79
2021/12/01 14:54:29;;;;;;;11.43;2.10;;;;;;;;;;4775871;28;20038;-79
2021/12/01 14:57:22;;;;;;;8.38;2.10;;;;;;;;;;4749719;28;20043;-78